createdAt,value
2022-09-16T00:01:22.094Z,12.90
2022-09-16T00:04:08.896Z,12.90
2022-09-16T00:06:55.236Z,12.80
2022-09-16T00:09:43.100Z,12.80
2022-09-16T00:12:29.716Z,12.70
2022-09-16T00:15:16.090Z,12.80
2022-09-16T00:18:02.601Z,12.80
2022-09-16T00:20:50.692Z,12.80
2022-09-16T00:23:37.653Z,12.80
2022-09-16T00:26:25.920Z,12.80
2022-09-16T00:29:12.661Z,12.90
2022-09-16T00:31:59.593Z,12.90
2022-09-16T00:34:46.060Z,12.80
2022-09-16T00:37:33.580Z,12.90
2022-09-16T00:40:20.465Z,12.90
2022-09-16T00:43:12.943Z,12.80
2022-09-16T00:46:03.247Z,12.70
2022-09-16T00:48:50.529Z,12.80
2022-09-16T00:51:38.612Z,12.70
2022-09-16T00:54:26.160Z,12.80
2022-09-16T00:57:16.006Z,12.80
2022-09-16T01:00:07.076Z,12.70
2022-09-16T01:02:53.503Z,12.70
2022-09-16T01:05:40.568Z,12.70
2022-09-16T01:08:26.951Z,12.70
2022-09-16T01:11:13.444Z,12.70
2022-09-16T01:14:21.298Z,12.70
2022-09-16T01:17:20.478Z,12.80
2022-09-16T01:20:46.552Z,12.70
2022-09-16T01:24:19.972Z,12.60
2022-09-16T01:27:36.333Z,12.70
2022-09-16T01:30:49.593Z,12.60
2022-09-16T01:33:46.587Z,12.50
2022-09-16T01:36:43.081Z,12.60
2022-09-16T01:39:32.613Z,12.60
2022-09-16T01:42:27.424Z,12.70
2022-09-16T01:45:19.049Z,12.60
2022-09-16T01:48:13.950Z,12.70
2022-09-16T01:51:07.020Z,12.70
2022-09-16T01:54:03.750Z,12.60
2022-09-16T01:56:57.651Z,12.60
2022-09-16T01:59:48.920Z,12.60
2022-09-16T02:02:40.347Z,12.70
2022-09-16T02:05:32.698Z,12.70
2022-09-16T02:08:24.034Z,12.50
2022-09-16T02:11:14.822Z,12.70
2022-09-16T02:14:05.579Z,12.60
2022-09-16T02:16:56.577Z,12.50
2022-09-16T02:19:47.184Z,12.60
2022-09-16T02:22:39.527Z,12.50
2022-09-16T02:25:27.711Z,12.60
2022-09-16T02:28:19.130Z,12.50
2022-09-16T02:31:10.625Z,12.50
2022-09-16T02:34:01.606Z,12.50
2022-09-16T02:36:53.737Z,12.50
2022-09-16T02:39:46.719Z,12.50
2022-09-16T02:42:34.435Z,12.50
2022-09-16T02:45:24.934Z,12.50
2022-09-16T02:48:20.716Z,12.40
2022-09-16T02:51:25.536Z,12.30
2022-09-16T02:54:17.792Z,12.30
2022-09-16T02:57:06.492Z,12.40
2022-09-16T02:59:52.904Z,12.40
2022-09-16T03:02:39.795Z,12.40
2022-09-16T03:05:29.020Z,12.40
2022-09-16T03:08:15.356Z,12.40
2022-09-16T03:11:09.726Z,12.40
2022-09-16T03:14:08.035Z,12.50
2022-09-16T03:17:02.257Z,12.50
2022-09-16T03:19:58.408Z,12.50
2022-09-16T03:22:52.092Z,12.50
2022-09-16T03:25:49.536Z,12.60
2022-09-16T03:28:42.771Z,13.90
2022-09-16T03:31:35.670Z,12.50
2022-09-16T03:34:26.984Z,12.50
2022-09-16T03:37:16.455Z,12.50
2022-09-16T03:40:09.197Z,12.60
2022-09-16T03:42:57.455Z,12.70
2022-09-16T03:45:44.271Z,12.70
2022-09-16T03:48:32.812Z,12.80
2022-09-16T03:51:19.787Z,12.80
2022-09-16T03:54:06.683Z,12.60
2022-09-16T03:56:53.318Z,12.60
2022-09-16T03:59:40.935Z,12.70
2022-09-16T04:02:27.467Z,12.80
2022-09-16T04:05:15.615Z,12.70
2022-09-16T04:08:02.478Z,12.70
2022-09-16T04:10:55.520Z,12.80
2022-09-16T04:13:42.195Z,12.80
2022-09-16T04:16:28.575Z,12.80
2022-09-16T04:19:15.703Z,12.70
2022-09-16T04:22:03.640Z,12.80
2022-09-16T04:24:50.075Z,12.70
2022-09-16T04:27:36.436Z,12.70
2022-09-16T04:30:22.984Z,12.70
2022-09-16T04:33:09.303Z,12.60
2022-09-16T04:35:55.768Z,12.70
2022-09-16T04:38:45.497Z,12.80
2022-09-16T04:41:32.154Z,12.80
2022-09-16T04:44:18.589Z,12.70
2022-09-16T04:47:05.328Z,12.70
2022-09-16T04:49:51.906Z,12.70
2022-09-16T04:52:38.606Z,12.50
2022-09-16T04:55:26.636Z,12.70
2022-09-16T04:58:13.462Z,12.60
2022-09-16T05:01:05.916Z,12.70
2022-09-16T05:03:53.986Z,12.70
2022-09-16T05:06:42.751Z,12.60
2022-09-16T05:09:29.214Z,12.60
2022-09-16T05:12:16.825Z,12.50
2022-09-16T05:15:03.394Z,12.50
2022-09-16T05:17:51.718Z,12.60
2022-09-16T05:20:38.916Z,12.40
2022-09-16T05:23:25.403Z,12.40
2022-09-16T05:26:14.491Z,12.50
2022-09-16T05:29:07.987Z,12.40
2022-09-16T05:31:54.506Z,12.50
2022-09-16T05:34:40.957Z,12.60
2022-09-16T05:37:27.276Z,12.50
2022-09-16T05:40:13.879Z,12.50
2022-09-16T05:43:00.794Z,12.50
2022-09-16T05:45:53.599Z,12.50
2022-09-16T05:48:39.849Z,12.60
2022-09-16T05:51:26.827Z,12.60
2022-09-16T05:54:13.367Z,12.60
2022-09-16T05:57:02.257Z,12.70
2022-09-16T05:59:52.504Z,12.50
2022-09-16T06:02:40.374Z,12.50
2022-09-16T06:05:27.242Z,12.60
2022-09-16T06:08:13.596Z,12.60
2022-09-16T06:11:02.318Z,12.60
2022-09-16T06:13:53.101Z,12.60
2022-09-16T06:16:39.715Z,12.40
2022-09-16T06:19:27.428Z,12.40
2022-09-16T06:22:13.817Z,12.40
2022-09-16T06:25:00.516Z,12.50
2022-09-16T06:27:47.612Z,12.60
2022-09-16T06:30:34.687Z,12.60
2022-09-16T06:33:22.587Z,12.70
2022-09-16T06:36:14.004Z,12.70
2022-09-16T06:39:01.468Z,12.60
2022-09-16T06:41:48.103Z,12.60
2022-09-16T06:44:34.992Z,12.60
2022-09-16T06:47:21.525Z,12.70
2022-09-16T06:50:08.400Z,12.70
2022-09-16T06:52:56.264Z,12.80
2022-09-16T06:55:42.768Z,12.80
2022-09-16T06:58:30.281Z,12.90
2022-09-16T07:01:19.424Z,13.00
2022-09-16T07:04:10.491Z,13.00
2022-09-16T07:07:09.267Z,13.10
2022-09-16T07:09:57.697Z,13.20
2022-09-16T07:12:44.063Z,13.20
2022-09-16T07:15:30.427Z,13.30
2022-09-16T07:18:16.709Z,13.30
2022-09-16T07:21:04.233Z,13.40
2022-09-16T07:23:50.714Z,13.30
2022-09-16T07:26:38.690Z,13.40
2022-09-16T07:29:25.555Z,13.40
2022-09-16T07:32:12.347Z,13.40
2022-09-16T07:34:58.829Z,13.50
2022-09-16T07:37:45.177Z,13.60
2022-09-16T07:40:31.603Z,13.60
2022-09-16T07:43:19.920Z,13.70
2022-09-16T07:46:07.092Z,13.80
2022-09-16T07:48:54.425Z,13.90
2022-09-16T07:51:41.414Z,13.90
2022-09-16T07:54:27.857Z,14.00
2022-09-16T07:57:14.691Z,13.90
2022-09-16T08:00:03.220Z,14.10
2022-09-16T08:02:49.591Z,14.00
2022-09-16T08:05:36.413Z,14.00
2022-09-16T08:08:22.631Z,14.20
2022-09-16T08:11:09.536Z,14.20
2022-09-16T08:13:55.853Z,14.40
2022-09-16T08:16:43.746Z,14.60
2022-09-16T08:19:30.156Z,14.50
2022-09-16T08:22:16.455Z,14.60
2022-09-16T08:25:03.099Z,14.60
2022-09-16T08:27:52.797Z,14.80
2022-09-16T08:30:42.484Z,14.80
2022-09-16T08:33:31.055Z,14.80
2022-09-16T08:36:19.907Z,14.90
2022-09-16T08:39:06.338Z,14.90
2022-09-16T08:42:28.476Z,15.00
2022-09-16T08:45:26.265Z,15.00
2022-09-16T08:48:30.756Z,15.00
2022-09-16T08:51:21.095Z,15.10
2022-09-16T08:54:12.831Z,15.10
2022-09-16T08:57:03.086Z,15.00
2022-09-16T08:59:53.440Z,15.00
2022-09-16T09:02:44.116Z,15.20
2022-09-16T09:05:40.824Z,15.40
2022-09-16T09:08:38.797Z,15.50
2022-09-16T09:11:32.556Z,15.60
2022-09-16T09:14:34.043Z,15.20
2022-09-16T09:17:30.893Z,15.40
2022-09-16T09:20:29.091Z,15.70
2022-09-16T09:23:33.784Z,15.80
2022-09-16T09:26:26.508Z,15.70
2022-09-16T09:29:29.230Z,15.90
2022-09-16T09:32:26.668Z,15.90
2022-09-16T09:35:23.605Z,15.60
2022-09-16T09:38:44.989Z,15.80
2022-09-16T09:41:40.628Z,16.00
2022-09-16T09:44:49.658Z,15.70
2022-09-16T09:47:42.304Z,15.70
2022-09-16T09:50:32.208Z,15.90
2022-09-16T09:53:23.589Z,16.20
2022-09-16T09:56:17.876Z,16.20
2022-09-16T09:59:13.530Z,16.30
2022-09-16T10:02:01.839Z,16.40
2022-09-16T10:04:49.210Z,16.00
2022-09-16T10:07:39.065Z,16.20
2022-09-16T10:10:27.791Z,16.30
2022-09-16T10:13:14.701Z,16.50
2022-09-16T10:16:18.067Z,16.50
2022-09-16T10:19:07.025Z,16.40
2022-09-16T10:21:55.336Z,16.60
2022-09-16T10:24:43.181Z,16.70
2022-09-16T10:27:34.182Z,16.70
2022-09-16T10:33:22.543Z,16.50
2022-09-16T10:36:11.144Z,16.70
2022-09-16T10:39:04.856Z,16.50
2022-09-16T10:41:51.939Z,16.40
2022-09-16T10:44:40.064Z,16.20
2022-09-16T10:47:29.516Z,16.30
2022-09-16T10:50:20.484Z,16.60
2022-09-16T10:53:24.253Z,16.80
2022-09-16T10:56:18.935Z,17.10
2022-09-16T10:59:07.060Z,17.30
2022-09-16T11:02:03.133Z,17.20
2022-09-16T11:05:02.417Z,16.90
2022-09-16T11:07:59.067Z,16.40
2022-09-16T11:10:51.525Z,15.70
2022-09-16T11:13:45.712Z,15.40
2022-09-16T11:16:52.477Z,15.20
2022-09-16T11:19:56.583Z,15.70
2022-09-16T11:22:53.909Z,15.80
2022-09-16T11:25:49.350Z,15.80
2022-09-16T11:28:51.360Z,17.90
2022-09-16T11:31:49.920Z,16.20
2022-09-16T11:34:50.055Z,16.00
2022-09-16T11:37:43.917Z,16.00
2022-09-16T11:40:42.661Z,16.30
2022-09-16T11:43:52.716Z,16.50
2022-09-16T11:46:49.259Z,16.60
2022-09-16T11:50:00.086Z,17.00
2022-09-16T11:53:07.433Z,17.10
2022-09-16T11:55:59.892Z,17.20
2022-09-16T11:58:51.619Z,17.20
2022-09-16T12:01:44.429Z,17.20
2022-09-16T12:04:38.304Z,17.30
2022-09-16T12:07:31.155Z,17.50
2022-09-16T12:10:22.329Z,17.70
2022-09-16T12:13:15.422Z,17.50
2022-09-16T12:16:07.438Z,17.90
2022-09-16T12:18:57.800Z,17.90
2022-09-16T12:21:49.512Z,17.60
2022-09-16T12:24:45.139Z,17.70
2022-09-16T12:27:44.424Z,17.60
2022-09-16T12:30:37.128Z,17.20
2022-09-16T12:33:33.072Z,17.30
2022-09-16T12:36:25.302Z,17.70
2022-09-16T12:39:13.257Z,17.80
2022-09-16T12:42:32.564Z,17.40
2022-09-16T12:45:38.600Z,17.60
2022-09-16T12:48:54.971Z,18.10
2022-09-16T12:52:05.943Z,18.30
2022-09-16T12:55:25.791Z,17.90
2022-09-16T12:58:38.771Z,17.50
2022-09-16T13:01:30.623Z,16.80
2022-09-16T13:04:23.140Z,16.10
2022-09-16T13:07:19.364Z,15.80
2022-09-16T13:10:09.688Z,14.50
2022-09-16T13:12:59.168Z,14.70
2022-09-16T13:15:55.928Z,14.80
2022-09-16T13:18:45.117Z,14.30
2022-09-16T13:21:40.769Z,14.00
2022-09-16T13:24:32.684Z,14.40
2022-09-16T13:27:29.384Z,14.70
2022-09-16T13:30:30.430Z,15.40
2022-09-16T13:33:28.814Z,15.40
2022-09-16T13:36:34.930Z,15.40
2022-09-16T13:39:31.013Z,15.60
2022-09-16T13:42:21.252Z,15.60
2022-09-16T13:45:32.395Z,15.50
2022-09-16T13:48:21.138Z,15.40
2022-09-16T13:51:14.739Z,15.20
2022-09-16T13:54:04.654Z,15.20
2022-09-16T13:57:12.783Z,14.90
2022-09-16T14:00:12.005Z,15.30
2022-09-16T14:03:34.607Z,15.50
2022-09-16T14:06:42.568Z,15.80
2022-09-16T14:09:45.451Z,15.70
2022-09-16T14:12:43.700Z,15.50
2022-09-16T14:15:36.037Z,15.50
2022-09-16T14:18:25.692Z,15.30
2022-09-16T14:21:19.783Z,15.40
2022-09-16T14:24:17.967Z,15.50
2022-09-16T14:27:07.161Z,15.40
2022-09-16T14:29:58.597Z,15.60
2022-09-16T14:32:45.975Z,15.60
2022-09-16T14:35:32.592Z,15.70
2022-09-16T14:41:33.963Z,16.30
2022-09-16T14:44:27.603Z,16.30
2022-09-16T14:47:30.789Z,16.40
2022-09-16T14:50:31.353Z,16.50
2022-09-16T14:53:35.718Z,16.20
2022-09-16T14:56:23.175Z,16.40
2022-09-16T14:59:12.776Z,16.20
2022-09-16T15:02:03.475Z,16.10
2022-09-16T15:04:54.852Z,16.10
2022-09-16T15:07:56.434Z,16.30
2022-09-16T15:10:53.206Z,16.30
2022-09-16T15:13:41.694Z,16.40
2022-09-16T15:16:29.381Z,16.50
2022-09-16T15:19:22.292Z,16.70
2022-09-16T15:22:14.907Z,16.80
2022-09-16T15:25:02.112Z,17.00
2022-09-16T15:27:48.447Z,17.20
2022-09-16T15:30:35.925Z,17.00
2022-09-16T15:33:31.178Z,16.90
2022-09-16T15:36:38.945Z,17.00
2022-09-16T15:39:28.343Z,16.90
2022-09-16T15:42:18.936Z,16.90
2022-09-16T15:45:17.370Z,17.00
2022-09-16T15:48:08.084Z,16.90
2022-09-16T15:50:57.732Z,17.30
2022-09-16T15:53:48.942Z,17.50
2022-09-16T15:56:44.514Z,17.40
2022-09-16T15:59:35.458Z,17.30
2022-09-16T16:02:26.728Z,17.20
2022-09-16T16:05:16.129Z,16.90
2022-09-16T16:08:09.548Z,16.70
2022-09-16T16:11:09.659Z,16.60
2022-09-16T16:14:01.153Z,16.50
2022-09-16T16:17:11.113Z,16.20
2022-09-16T16:19:57.616Z,16.30
2022-09-16T16:22:45.700Z,16.30
2022-09-16T16:25:32.628Z,16.20
2022-09-16T16:28:20.442Z,16.10
2022-09-16T16:31:15.909Z,16.10
2022-09-16T16:34:02.627Z,16.00
2022-09-16T16:36:49.108Z,16.00
2022-09-16T16:39:36.101Z,15.80
2022-09-16T16:42:23.207Z,15.70
2022-09-16T16:45:12.500Z,15.60
2022-09-16T16:47:59.389Z,15.40
2022-09-16T16:50:55.116Z,15.30
2022-09-16T16:53:41.571Z,15.10
2022-09-16T16:56:28.347Z,15.30
2022-09-16T16:59:15.492Z,15.30
2022-09-16T17:02:04.310Z,15.10
2022-09-16T17:04:50.946Z,15.00
2022-09-16T17:07:37.487Z,14.90
2022-09-16T17:10:24.184Z,14.80
2022-09-16T17:13:10.973Z,14.90
2022-09-16T17:15:57.496Z,14.70
2022-09-16T17:18:45.844Z,14.80
2022-09-16T17:21:33.497Z,14.80
2022-09-16T17:24:19.885Z,14.80
2022-09-16T17:27:06.318Z,14.90
2022-09-16T17:29:52.966Z,14.90
2022-09-16T17:32:39.339Z,14.80
2022-09-16T17:35:27.147Z,14.80
2022-09-16T17:38:13.639Z,14.70
2022-09-16T17:41:05.368Z,14.80
2022-09-16T17:43:52.013Z,14.80
2022-09-16T17:46:39.161Z,14.70
2022-09-16T17:49:26.219Z,14.70
2022-09-16T17:52:14.009Z,14.70
2022-09-16T17:55:01.853Z,14.50
2022-09-16T17:57:48.619Z,14.50
2022-09-16T18:00:34.963Z,14.40
2022-09-16T18:03:21.406Z,14.50
2022-09-16T18:06:10.355Z,14.30
2022-09-16T18:09:01.547Z,14.40
2022-09-16T18:11:48.133Z,14.30
2022-09-16T18:14:34.736Z,14.40
2022-09-16T18:17:21.216Z,14.20
2022-09-16T18:20:08.971Z,14.10
2022-09-16T18:22:55.484Z,14.20
2022-09-16T18:25:43.245Z,14.30
2022-09-16T18:28:29.487Z,14.00
2022-09-16T18:31:17.642Z,14.00
2022-09-16T18:34:05.164Z,14.00
2022-09-16T18:36:51.454Z,13.70
2022-09-16T18:39:37.820Z,13.60
2022-09-16T18:42:25.662Z,13.80
2022-09-16T18:45:12.111Z,13.50
2022-09-16T18:47:58.889Z,13.60
2022-09-16T18:50:45.572Z,13.80
2022-09-16T18:53:32.011Z,13.50
2022-09-16T18:56:22.402Z,13.60
2022-09-16T18:59:21.653Z,13.60
2022-09-16T19:02:13.409Z,13.60
2022-09-16T19:05:00.102Z,13.70
2022-09-16T19:07:46.605Z,13.30
2022-09-16T19:10:34.418Z,13.50
2022-09-16T19:13:20.972Z,13.50
2022-09-16T19:16:08.867Z,13.20
2022-09-16T19:18:57.099Z,13.30
2022-09-16T19:21:44.247Z,13.20
2022-09-16T19:24:30.952Z,13.20
2022-09-16T19:27:17.589Z,13.20
2022-09-16T19:30:04.369Z,13.30
2022-09-16T19:32:53.302Z,13.20
2022-09-16T19:35:39.884Z,13.10
2022-09-16T19:38:28.384Z,13.10
2022-09-16T19:41:16.253Z,13.00
2022-09-16T19:44:05.353Z,13.00
2022-09-16T19:46:51.586Z,13.00
2022-09-16T19:49:39.720Z,13.10
2022-09-16T19:52:26.276Z,13.00
2022-09-16T19:55:12.837Z,12.90
2022-09-16T19:57:59.341Z,12.90
2022-09-16T20:00:55.757Z,12.70
2022-09-16T20:03:44.556Z,12.90
2022-09-16T20:06:36.216Z,12.80
2022-09-16T20:09:22.591Z,12.90
2022-09-16T20:12:09.240Z,12.80
2022-09-16T20:14:55.700Z,12.90
2022-09-16T20:17:42.399Z,12.90
2022-09-16T20:20:30.033Z,12.80
2022-09-16T20:23:17.888Z,12.80
2022-09-16T20:26:06.813Z,12.60
2022-09-16T20:28:55.451Z,12.60
2022-09-16T20:31:41.725Z,12.60
2022-09-16T20:34:28.821Z,12.60
2022-09-16T20:37:15.400Z,12.60
2022-09-16T20:40:04.005Z,12.60
2022-09-16T20:42:50.367Z,12.60
2022-09-16T20:45:37.468Z,12.70
2022-09-16T20:48:23.867Z,12.60
2022-09-16T20:51:11.504Z,12.60
2022-09-16T20:54:03.867Z,12.50
2022-09-16T20:56:54.897Z,12.50
2022-09-16T20:59:41.323Z,12.40
2022-09-16T21:02:27.840Z,12.50
2022-09-16T21:05:14.439Z,12.50
2022-09-16T21:08:00.793Z,12.40
2022-09-16T21:10:47.759Z,12.50
2022-09-16T21:13:35.773Z,12.60
2022-09-16T21:16:23.497Z,12.60
2022-09-16T21:19:12.764Z,12.50
2022-09-16T21:21:59.153Z,12.50
2022-09-16T21:24:45.556Z,12.50
2022-09-16T21:27:32.291Z,12.50
2022-09-16T21:30:20.199Z,12.60
2022-09-16T21:33:06.568Z,12.50
2022-09-16T21:35:53.893Z,12.50
2022-09-16T21:38:41.500Z,12.50
2022-09-16T21:41:28.481Z,12.40
2022-09-16T21:44:15.751Z,12.30
2022-09-16T21:47:11.530Z,12.30
2022-09-16T21:50:02.570Z,12.50
2022-09-16T21:52:48.967Z,12.40
2022-09-16T21:55:35.996Z,12.50
2022-09-16T21:58:22.628Z,12.40
2022-09-16T22:01:11.372Z,12.30
2022-09-16T22:04:01.068Z,12.40
2022-09-16T22:06:48.793Z,12.20
2022-09-16T22:09:35.280Z,12.40
2022-09-16T22:12:21.801Z,12.50
2022-09-16T22:15:09.100Z,12.40
2022-09-16T22:17:55.356Z,12.40
2022-09-16T22:20:43.197Z,12.20
2022-09-16T22:23:29.895Z,12.40
2022-09-16T22:26:18.131Z,12.40
2022-09-16T22:29:06.217Z,12.30
2022-09-16T22:31:52.786Z,12.40
2022-09-16T22:34:39.485Z,12.40
2022-09-16T22:37:27.154Z,12.40
2022-09-16T22:40:13.583Z,12.30
2022-09-16T22:43:00.604Z,12.40
2022-09-16T22:45:46.893Z,12.50
2022-09-16T22:48:33.623Z,12.50
2022-09-16T22:51:21.258Z,12.40
2022-09-16T22:54:09.672Z,12.40
2022-09-16T22:56:56.148Z,12.40
2022-09-16T22:59:42.498Z,12.50
2022-09-16T23:02:30.155Z,12.60
2022-09-16T23:05:16.957Z,12.60
2022-09-16T23:08:03.840Z,12.70
2022-09-16T23:10:52.219Z,12.60
2022-09-16T23:13:41.394Z,12.70
2022-09-16T23:16:29.822Z,12.50
2022-09-16T23:19:16.400Z,12.50
2022-09-16T23:22:02.773Z,12.60
2022-09-16T23:24:49.070Z,12.70
2022-09-16T23:27:36.976Z,12.80
2022-09-16T23:30:23.738Z,12.70
2022-09-16T23:33:10.109Z,12.80
2022-09-16T23:35:56.586Z,12.80
2022-09-16T23:38:43.847Z,12.80
2022-09-16T23:41:31.961Z,12.80
2022-09-16T23:44:20.500Z,12.80
2022-09-16T23:47:07.383Z,12.50
2022-09-16T23:49:53.650Z,12.70
2022-09-16T23:52:40.241Z,12.50
2022-09-16T23:55:27.180Z,12.70
2022-09-16T23:58:13.760Z,12.70
